Time;durP1;ratioP1;P1;durP2;ratioP2;P2;SDS_P1;SDS_P2;PMS_P1;PMS_P2;Temp;Humidity;BMP_temperature;BMP_pressure;BME280_temperature;BME280_humidity;BME280_pressure;Samples;Min_cycle;Max_cycle;Signal;HPM_P1;HPM_P2
2022/01/17 00:01:51;;;;;;;;;;;2.80;99.90;;;;;;5044203;28;19928;-77
2022/01/17 00:04:18;;;;;;;;;;;2.80;99.90;;;;;;5040334;28;19925;-77
2022/01/17 00:06:46;;;;;;;;;;;2.80;99.90;;;;;;5050152;28;19925;-78
2022/01/17 00:09:13;;;;;;;;;;;2.80;99.90;;;;;;5037060;28;19925;-77
2022/01/17 00:11:44;;;;;;;;;;;2.80;99.90;;;;;;5033997;28;19925;-78
2022/01/17 00:14:15;;;;;;;;;;;2.80;99.90;;;;;;5047361;28;19948;-78
2022/01/17 00:16:48;;;;;;;;;;;2.80;99.90;;;;;;5032071;28;20080;-78
2022/01/17 00:19:37;;;;;;;;;;;2.80;99.90;;;;;;5046773;28;20346;-77
2022/01/17 00:22:04;;;;;;;;;;;2.80;99.90;;;;;;5030157;28;20106;-77
2022/01/17 00:24:31;;;;;;;;;;;2.80;99.90;;;;;;5030217;28;19925;-77
2022/01/17 00:26:59;;;;;;;;;;;2.80;99.90;;;;;;5035280;28;19924;-77
2022/01/17 00:29:26;;;;;;;;;;;2.80;99.90;;;;;;5042286;28;19925;-78
2022/01/17 00:31:53;;;;;;;;;;;2.80;99.90;;;;;;5048798;28;19925;-77
2022/01/17 00:34:20;;;;;;;;;;;2.80;99.90;;;;;;5041523;28;20301;-78
2022/01/17 00:36:47;;;;;;;;;;;2.80;99.90;;;;;;5031866;28;19936;-78
2022/01/17 00:39:14;;;;;;;;;;;2.80;99.90;;;;;;5042834;28;20291;-78
2022/01/17 00:41:41;;;;;;;;;;;2.80;99.90;;;;;;5042657;28;19929;-78
2022/01/17 00:44:10;;;;;;;;;;;2.80;99.90;;;;;;5047898;28;19929;-78
2022/01/17 00:46:37;;;;;;;;;;;2.80;99.90;;;;;;5028732;28;19936;-77
2022/01/17 00:49:04;;;;;;;;;;;2.80;99.90;;;;;;5039472;28;19924;-77
2022/01/17 00:51:31;;;;;;;;;;;2.80;99.90;;;;;;5048971;28;19967;-78
2022/01/17 00:53:58;;;;;;;;;;;2.80;99.90;;;;;;5047140;28;19931;-77
2022/01/17 00:56:25;;;;;;;;;;;2.80;99.90;;;;;;5047765;28;20377;-77
2022/01/17 00:58:52;;;;;;;;;;;2.80;99.90;;;;;;5031343;28;19933;-77
2022/01/17 01:01:20;;;;;;;;;;;2.70;99.90;;;;;;5046095;28;19931;-77
2022/01/17 01:03:47;;;;;;;;;;;2.70;99.90;;;;;;5048101;28;19935;-77
2022/01/17 01:06:14;;;;;;;;;;;2.80;99.90;;;;;;5036530;28;19932;-77
2022/01/17 01:08:42;;;;;;;;;;;2.70;99.90;;;;;;5031142;28;20306;-77
2022/01/17 01:11:08;;;;;;;;;;;2.70;99.90;;;;;;5047755;28;19944;-77
2022/01/17 01:13:36;;;;;;;;;;;2.70;99.90;;;;;;5044537;28;19933;-78
2022/01/17 01:16:24;;;;;;;;;;;2.70;99.90;;;;;;5042133;28;20410;-78
2022/01/17 01:30:12;;;;;;;;;;;2.70;99.90;;;;;;5043521;28;19928;-78
2022/01/17 01:32:44;;;;;;;;;;;2.70;99.90;;;;;;5031154;28;19978;-78
2022/01/17 01:35:15;;;;;;;;;;;2.70;99.90;;;;;;5029532;28;19929;-77
2022/01/17 01:37:45;;;;;;;;;;;2.70;99.90;;;;;;5035040;28;19932;-77
2022/01/17 01:40:12;;;;;;;;;;;2.70;99.90;;;;;;5041457;28;19932;-77
2022/01/17 01:42:39;;;;;;;;;;;2.70;99.90;;;;;;5038628;28;19979;-77
2022/01/17 01:45:07;;;;;;;;;;;2.70;99.90;;;;;;5047698;28;19931;-78
2022/01/17 01:47:34;;;;;;;;;;;2.70;99.90;;;;;;5039395;28;19924;-78
2022/01/17 01:50:01;;;;;;;;;;;2.70;99.90;;;;;;5041642;28;19924;-78
2022/01/17 01:52:30;;;;;;;;;;;2.70;99.90;;;;;;5038539;28;19928;-77
2022/01/17 01:54:57;;;;;;;;;;;2.70;99.90;;;;;;5044125;28;20021;-77
2022/01/17 01:57:23;;;;;;;;;;;2.70;99.90;;;;;;5046854;28;19940;-77
2022/01/17 01:59:52;;;;;;;;;;;2.70;99.90;;;;;;5049066;28;19925;-78
2022/01/17 02:02:19;;;;;;;;;;;2.70;99.90;;;;;;5027289;28;19924;-78
2022/01/17 02:04:46;;;;;;;;;;;2.70;99.90;;;;;;5045974;28;19925;-77
2022/01/17 02:07:13;;;;;;;;;;;2.70;99.90;;;;;;5031485;28;19929;-78
2022/01/17 02:09:42;;;;;;;;;;;2.70;99.90;;;;;;5048288;28;20023;-77
2022/01/17 02:12:09;;;;;;;;;;;2.70;99.90;;;;;;5029899;28;19932;-77
2022/01/17 02:14:36;;;;;;;;;;;2.70;99.90;;;;;;5035577;28;19929;-78
2022/01/17 02:17:03;;;;;;;;;;;2.70;99.90;;;;;;5041824;28;20021;-78
2022/01/17 02:19:31;;;;;;;;;;;2.70;99.90;;;;;;5052056;28;19931;-78
2022/01/17 02:21:59;;;;;;;;;;;2.70;99.90;;;;;;5050470;28;20020;-78
2022/01/17 02:24:27;;;;;;;;;;;2.70;99.90;;;;;;5038457;28;19960;-78
2022/01/17 02:26:54;;;;;;;;;;;2.60;99.90;;;;;;5036767;28;19924;-77
2022/01/17 02:29:21;;;;;;;;;;;2.60;99.90;;;;;;5049452;28;19971;-77
2022/01/17 02:31:48;;;;;;;;;;;2.70;99.90;;;;;;5045111;28;19952;-78
2022/01/17 02:34:15;;;;;;;;;;;2.60;99.90;;;;;;5036666;28;19925;-78
2022/01/17 02:36:42;;;;;;;;;;;2.60;99.90;;;;;;5039812;28;19925;-77
2022/01/17 02:39:11;;;;;;;;;;;2.60;99.90;;;;;;5049851;28;20561;-78
2022/01/17 02:41:39;;;;;;;;;;;2.70;99.90;;;;;;5037739;28;19929;-78
2022/01/17 02:44:06;;;;;;;;;;;2.60;99.90;;;;;;5033581;28;20062;-77
2022/01/17 02:46:33;;;;;;;;;;;2.60;99.90;;;;;;5045833;28;19929;-77
2022/01/17 02:49:01;;;;;;;;;;;2.60;99.90;;;;;;5043705;28;20402;-77
2022/01/17 02:51:28;;;;;;;;;;;2.60;99.90;;;;;;5050701;28;19929;-77
2022/01/17 02:53:55;;;;;;;;;;;2.60;99.90;;;;;;5030615;28;20406;-77
2022/01/17 02:56:24;;;;;;;;;;;2.60;99.90;;;;;;5042140;28;19970;-78
2022/01/17 02:58:51;;;;;;;;;;;2.60;99.90;;;;;;5050319;28;19924;-77
2022/01/17 03:01:20;;;;;;;;;;;2.60;99.90;;;;;;5044490;28;20026;-77
2022/01/17 03:03:47;;;;;;;;;;;2.60;99.90;;;;;;5044232;28;19925;-77
2022/01/17 03:06:14;;;;;;;;;;;2.60;99.90;;;;;;5050159;28;20303;-78
2022/01/17 03:08:42;;;;;;;;;;;2.60;99.90;;;;;;5036574;28;19925;-78
2022/01/17 03:11:11;;;;;;;;;;;2.60;99.90;;;;;;5032707;28;19982;-77
2022/01/17 03:13:40;;;;;;;;;;;2.60;99.90;;;;;;5034550;28;19929;-77
2022/01/17 03:16:09;;;;;;;;;;;2.60;99.90;;;;;;5051240;28;19925;-77
2022/01/17 03:18:39;;;;;;;;;;;2.60;99.90;;;;;;5047477;28;20398;-78
2022/01/17 03:21:06;;;;;;;;;;;2.60;99.90;;;;;;5050467;28;19936;-77
2022/01/17 03:23:33;;;;;;;;;;;2.60;99.90;;;;;;5052101;28;19936;-77
2022/01/17 03:26:00;;;;;;;;;;;2.60;99.90;;;;;;5046000;28;19994;-78
2022/01/17 03:28:30;;;;;;;;;;;2.60;99.90;;;;;;5046390;28;20082;-78
2022/01/17 03:30:59;;;;;;;;;;;2.60;99.90;;;;;;5085417;22;20424;-76
2022/01/17 03:33:26;;;;;;;;;;;2.60;99.90;;;;;;5046300;23;19925;-77
2022/01/17 03:35:53;;;;;;;;;;;2.60;99.90;;;;;;5049208;28;19962;-76
2022/01/17 03:38:21;;;;;;;;;;;2.60;99.90;;;;;;5052033;28;20015;-78
2022/01/17 03:40:51;;;;;;;;;;;2.60;99.90;;;;;;5046850;28;19968;-77
2022/01/17 03:43:18;;;;;;;;;;;2.60;99.90;;;;;;5039808;28;20492;-77
2022/01/17 03:45:46;;;;;;;;;;;2.60;99.90;;;;;;5023692;28;19925;-77
2022/01/17 03:48:14;;;;;;;;;;;2.60;99.90;;;;;;5047639;28;19928;-77
2022/01/17 03:50:41;;;;;;;;;;;2.60;99.90;;;;;;5043983;28;19924;-77
2022/01/17 03:53:09;;;;;;;;;;;2.50;99.90;;;;;;5041772;28;20031;-77
2022/01/17 03:55:36;;;;;;;;;;;2.60;99.90;;;;;;5026956;28;19924;-77
2022/01/17 03:58:04;;;;;;;;;;;2.50;99.90;;;;;;5048464;28;19925;-77
2022/01/17 04:00:32;;;;;;;;;;;2.50;99.90;;;;;;5022013;28;20295;-77
2022/01/17 04:03:00;;;;;;;;;;;2.50;99.90;;;;;;5044927;28;19925;-77
2022/01/17 04:05:28;;;;;;;;;;;2.60;99.90;;;;;;5027541;28;20379;-77
2022/01/17 04:07:55;;;;;;;;;;;2.60;99.90;;;;;;5047950;28;19936;-77
2022/01/17 04:10:22;;;;;;;;;;;2.50;99.90;;;;;;5048560;28;19986;-77
2022/01/17 04:12:49;;;;;;;;;;;2.60;99.90;;;;;;5035977;28;19932;-77
2022/01/17 04:15:16;;;;;;;;;;;2.50;99.90;;;;;;5028396;28;19924;-76
2022/01/17 04:17:43;;;;;;;;;;;2.60;99.90;;;;;;5049634;28;19925;-78
2022/01/17 04:20:13;;;;;;;;;;;2.50;99.90;;;;;;5050884;28;19924;-77
2022/01/17 04:22:49;;;;;;;;;;;2.50;99.90;;;;;;5046517;28;20382;-77
2022/01/17 04:25:16;;;;;;;;;;;2.60;99.90;;;;;;5039417;28;19978;-77
2022/01/17 04:27:43;;;;;;;;;;;2.50;99.90;;;;;;5026698;28;19976;-77
2022/01/17 04:30:10;;;;;;;;;;;2.60;99.90;;;;;;5025011;28;19947;-77
2022/01/17 04:32:37;;;;;;;;;;;2.60;99.90;;;;;;5031965;28;19925;-77
2022/01/17 04:35:05;;;;;;;;;;;2.60;99.90;;;;;;5036246;28;19925;-77
2022/01/17 04:37:32;;;;;;;;;;;2.60;99.90;;;;;;5047145;28;19939;-77
2022/01/17 04:40:00;;;;;;;;;;;2.50;99.90;;;;;;5042657;28;19932;-77
2022/01/17 04:42:28;;;;;;;;;;;2.60;99.90;;;;;;5033044;28;19934;-77
2022/01/17 04:45:11;;;;;;;;;;;2.60;99.90;;;;;;5042605;28;19931;-77
2022/01/17 04:47:39;;;;;;;;;;;2.60;99.90;;;;;;5046274;28;19939;-78
2022/01/17 04:50:06;;;;;;;;;;;2.60;99.90;;;;;;5027514;28;20314;-78
2022/01/17 04:52:34;;;;;;;;;;;2.60;99.90;;;;;;5028563;28;19960;-77
2022/01/17 04:55:03;;;;;;;;;;;2.60;99.90;;;;;;5045153;28;20790;-77
2022/01/17 04:57:30;;;;;;;;;;;2.60;99.90;;;;;;5039493;28;19932;-77
2022/01/17 04:59:57;;;;;;;;;;;2.60;99.90;;;;;;5039275;28;19968;-77
2022/01/17 05:02:25;;;;;;;;;;;2.60;99.90;;;;;;5018236;28;20477;-77
2022/01/17 05:04:54;;;;;;;;;;;2.70;99.90;;;;;;5034970;28;20298;-77
2022/01/17 05:07:21;;;;;;;;;;;2.60;99.90;;;;;;5032263;28;19925;-77
2022/01/17 05:09:48;;;;;;;;;;;2.60;99.90;;;;;;5018538;28;19924;-76
2022/01/17 05:12:17;;;;;;;;;;;2.60;99.90;;;;;;5022799;28;19925;-77
2022/01/17 05:14:48;;;;;;;;;;;2.60;99.90;;;;;;5041172;28;20403;-77
2022/01/17 05:17:37;;;;;;;;;;;2.60;99.90;;;;;;5031477;28;20375;-77
2022/01/17 05:20:08;;;;;;;;;;;2.60;99.90;;;;;;5036603;28;19982;-77
2022/01/17 05:22:36;;;;;;;;;;;2.60;99.90;;;;;;5036299;28;20016;-77
2022/01/17 05:25:04;;;;;;;;;;;2.60;99.90;;;;;;5045922;28;20307;-77
2022/01/17 05:27:34;;;;;;;;;;;2.60;99.90;;;;;;5039031;28;19931;-77
2022/01/17 05:30:01;;;;;;;;;;;2.70;99.90;;;;;;5027000;28;20019;-77
2022/01/17 05:32:28;;;;;;;;;;;2.60;99.90;;;;;;5021127;28;19933;-78
2022/01/17 05:34:56;;;;;;;;;;;2.60;99.90;;;;;;5016867;28;19937;-77
2022/01/17 05:37:23;;;;;;;;;;;2.60;99.90;;;;;;5022743;28;20506;-77
2022/01/17 05:39:50;;;;;;;;;;;2.60;99.90;;;;;;5026208;28;19928;-77
2022/01/17 05:42:18;;;;;;;;;;;2.60;99.90;;;;;;5025368;28;19925;-77
2022/01/17 05:44:47;;;;;;;;;;;2.60;99.90;;;;;;5017873;28;19931;-77
2022/01/17 05:47:14;;;;;;;;;;;2.60;99.90;;;;;;5042336;28;20010;-76
2022/01/17 05:49:41;;;;;;;;;;;2.60;99.90;;;;;;5036638;28;19978;-77
2022/01/17 05:52:09;;;;;;;;;;;2.60;99.90;;;;;;5020816;28;21211;-77
2022/01/17 05:54:37;;;;;;;;;;;2.60;99.90;;;;;;5042857;28;20380;-77
2022/01/17 05:57:04;;;;;;;;;;;2.60;99.90;;;;;;5040180;28;19932;-76
2022/01/17 05:59:31;;;;;;;;;;;2.60;99.90;;;;;;5042500;28;19933;-76
2022/01/17 06:02:03;;;;;;;;;;;2.60;99.90;;;;;;5037932;28;19928;-77
2022/01/17 06:04:31;;;;;;;;;;;2.60;99.90;;;;;;5033355;28;20627;-77
2022/01/17 06:06:58;;;;;;;;;;;2.60;99.90;;;;;;5025097;28;19925;-77
2022/01/17 06:09:24;;;;;;;;;;;2.60;99.90;;;;;;5043428;28;19925;-77
2022/01/17 06:11:52;;;;;;;;;;;2.60;99.90;;;;;;5039427;28;19929;-77
2022/01/17 06:14:21;;;;;;;;;;;2.60;99.90;;;;;;5045309;28;20069;-77
2022/01/17 06:16:48;;;;;;;;;;;2.60;99.90;;;;;;5016929;28;19933;-77
2022/01/17 06:19:17;;;;;;;;;;;2.60;99.90;;;;;;5032654;28;20449;-77
2022/01/17 06:21:45;;;;;;;;;;;2.70;99.90;;;;;;5033367;28;21388;-76
2022/01/17 06:24:13;;;;;;;;;;;2.60;99.90;;;;;;5045725;28;19928;-76
2022/01/17 06:26:41;;;;;;;;;;;2.60;99.90;;;;;;5019105;28;19929;-77
2022/01/17 06:29:11;;;;;;;;;;;2.60;99.90;;;;;;5029400;28;20035;-76
2022/01/17 06:31:39;;;;;;;;;;;2.60;99.90;;;;;;5033202;28;20398;-77
2022/01/17 06:34:06;;;;;;;;;;;2.60;99.90;;;;;;5017087;28;19925;-77
2022/01/17 06:36:34;;;;;;;;;;;2.60;99.90;;;;;;5044086;28;19935;-77
2022/01/17 06:39:02;;;;;;;;;;;2.60;99.90;;;;;;5043243;28;19925;-76
2022/01/17 06:41:30;;;;;;;;;;;2.60;99.90;;;;;;5031298;28;20457;-77
2022/01/17 06:43:59;;;;;;;;;;;2.60;99.90;;;;;;5040340;28;20377;-77
2022/01/17 06:46:26;;;;;;;;;;;2.60;99.90;;;;;;5050781;28;19979;-77
2022/01/17 06:48:53;;;;;;;;;;;2.60;99.90;;;;;;5024600;28;19975;-77
2022/01/17 06:51:20;;;;;;;;;;;2.60;99.90;;;;;;5039347;28;19961;-77
2022/01/17 06:53:50;;;;;;;;;;;2.60;99.90;;;;;;5022470;28;20347;-77
2022/01/17 06:56:17;;;;;;;;;;;2.60;99.90;;;;;;5020239;28;19925;-77
2022/01/17 06:58:44;;;;;;;;;;;2.60;99.90;;;;;;5020184;28;19937;-77
2022/01/17 07:01:11;;;;;;;;;;;2.60;99.90;;;;;;5036662;28;19933;-77
2022/01/17 07:03:40;;;;;;;;;;;2.60;99.90;;;;;;5026492;28;20338;-77
2022/01/17 07:06:07;;;;;;;;;;;2.60;99.90;;;;;;5026514;28;20440;-76
2022/01/17 07:08:34;;;;;;;;;;;2.60;99.90;;;;;;5026225;28;19961;-77
2022/01/17 07:11:02;;;;;;;;;;;2.60;99.90;;;;;;5015827;28;19929;-77
2022/01/17 07:13:29;;;;;;;;;;;2.60;99.90;;;;;;5018085;28;19929;-77
2022/01/17 07:15:56;;;;;;;;;;;2.60;99.90;;;;;;5046915;28;19953;-76
2022/01/17 07:18:23;;;;;;;;;;;2.60;99.90;;;;;;5040797;28;19940;-77
2022/01/17 07:20:50;;;;;;;;;;;2.60;99.90;;;;;;5035519;28;19935;-77
2022/01/17 07:23:17;;;;;;;;;;;2.60;99.90;;;;;;5045232;28;19929;-77
2022/01/17 07:25:44;;;;;;;;;;;2.60;99.90;;;;;;5024963;28;20311;-77
2022/01/17 07:28:13;;;;;;;;;;;2.60;99.90;;;;;;5041335;28;20477;-77
2022/01/17 07:30:40;;;;;;;;;;;2.60;99.90;;;;;;5043472;28;20028;-77
2022/01/17 07:33:07;;;;;;;;;;;2.60;99.90;;;;;;5042863;28;20388;-77
2022/01/17 07:35:35;;;;;;;;;;;2.60;99.90;;;;;;5044630;28;19933;-77
2022/01/17 07:38:02;;;;;;;;;;;2.60;99.90;;;;;;5048016;28;19936;-77
2022/01/17 07:40:29;;;;;;;;;;;2.60;99.90;;;;;;5042986;28;19931;-77
2022/01/17 07:42:56;;;;;;;;;;;2.60;99.90;;;;;;5041753;28;20384;-77
2022/01/17 07:45:26;;;;;;;;;;;2.60;99.90;;;;;;5026212;28;19924;-76
2022/01/17 07:50:34;;;;;;;;;;;2.60;99.90;;;;;;5044455;28;19931;-77
2022/01/17 07:53:01;;;;;;;;;;;2.60;99.90;;;;;;5045639;28;19936;-77
2022/01/17 07:55:28;;;;;;;;;;;2.60;99.90;;;;;;5025539;28;19975;-77
2022/01/17 07:57:55;;;;;;;;;;;2.60;99.90;;;;;;5025031;28;20004;-77
2022/01/17 08:00:25;;;;;;;;;;;2.60;99.90;;;;;;5026259;28;20345;-77
2022/01/17 08:02:56;;;;;;;;;;;2.60;99.90;;;;;;5038441;28;20291;-77
2022/01/17 08:05:23;;;;;;;;;;;2.60;99.90;;;;;;5048847;28;20399;-77
2022/01/17 08:07:50;;;;;;;;;;;2.60;99.90;;;;;;5038325;28;19964;-77
2022/01/17 08:10:17;;;;;;;;;;;2.60;99.90;;;;;;5032014;28;19960;-76
2022/01/17 08:12:46;;;;;;;;;;;2.60;99.90;;;;;;5044781;28;20297;-76
2022/01/17 08:15:13;;;;;;;;;;;2.60;99.90;;;;;;5046494;28;20381;-77
2022/01/17 08:17:40;;;;;;;;;;;2.60;99.90;;;;;;5024845;28;19939;-77
2022/01/17 08:20:09;;;;;;;;;;;2.60;99.90;;;;;;5034577;28;19987;-77
2022/01/17 08:22:36;;;;;;;;;;;2.60;99.90;;;;;;5045422;28;19978;-77
2022/01/17 08:25:03;;;;;;;;;;;2.60;99.90;;;;;;5049924;28;19986;-77
2022/01/17 08:27:30;;;;;;;;;;;2.60;99.90;;;;;;5041107;28;19929;-76
2022/01/17 08:29:58;;;;;;;;;;;2.60;99.90;;;;;;5023400;28;19932;-77
2022/01/17 08:32:28;;;;;;;;;;;2.70;99.90;;;;;;5027884;28;19925;-77
2022/01/17 08:34:56;;;;;;;;;;;2.70;99.90;;;;;;5030851;28;19924;-76
2022/01/17 08:37:26;;;;;;;;;;;2.70;99.90;;;;;;5040104;28;19932;-77
2022/01/17 08:39:53;;;;;;;;;;;2.70;99.90;;;;;;5021584;28;19970;-76
2022/01/17 08:42:20;;;;;;;;;;;2.70;99.90;;;;;;5038351;28;20011;-77
2022/01/17 08:44:49;;;;;;;;;;;2.70;99.90;;;;;;5039618;28;20337;-77
2022/01/17 08:47:16;;;;;;;;;;;2.70;99.90;;;;;;5025894;28;19926;-77
2022/01/17 08:49:43;;;;;;;;;;;2.70;99.90;;;;;;5042030;28;19976;-77
2022/01/17 08:52:10;;;;;;;;;;;2.70;99.90;;;;;;5047604;28;19952;-77
2022/01/17 08:54:38;;;;;;;;;;;2.70;99.90;;;;;;5037761;28;20391;-77
2022/01/17 08:57:06;;;;;;;;;;;2.80;99.90;;;;;;5042714;28;19925;-77
2022/01/17 08:59:33;;;;;;;;;;;2.80;99.90;;;;;;5034068;28;19929;-77
2022/01/17 09:02:00;;;;;;;;;;;2.80;99.90;;;;;;5022233;28;19928;-77
2022/01/17 09:04:27;;;;;;;;;;;2.80;99.90;;;;;;5041938;28;20004;-76
2022/01/17 09:06:54;;;;;;;;;;;2.80;99.90;;;;;;5039072;28;19944;-77
2022/01/17 09:09:21;;;;;;;;;;;2.80;99.90;;;;;;5028302;28;19929;-77
2022/01/17 09:11:49;;;;;;;;;;;2.80;99.90;;;;;;5044488;28;19978;-77
2022/01/17 09:14:16;;;;;;;;;;;2.90;99.90;;;;;;5030261;28;20077;-77
2022/01/17 09:16:43;;;;;;;;;;;2.90;99.90;;;;;;5045358;28;19931;-77
2022/01/17 09:19:11;;;;;;;;;;;2.90;99.90;;;;;;5044158;28;19924;-76
2022/01/17 09:21:38;;;;;;;;;;;2.90;99.90;;;;;;5038245;28;19954;-77
2022/01/17 09:24:06;;;;;;;;;;;2.90;99.90;;;;;;5016701;28;19933;-76
2022/01/17 09:26:33;;;;;;;;;;;3.00;99.90;;;;;;5020441;28;20466;-77
2022/01/17 09:29:01;;;;;;;;;;;3.00;99.90;;;;;;5036079;28;20474;-77
2022/01/17 09:31:28;;;;;;;;;;;3.00;99.90;;;;;;5018980;28;20412;-77
2022/01/17 09:33:56;;;;;;;;;;;3.00;99.90;;;;;;5012030;28;19933;-77
2022/01/17 09:36:25;;;;;;;;;;;3.00;99.90;;;;;;5033002;28;20019;-77
2022/01/17 09:38:52;;;;;;;;;;;3.10;99.90;;;;;;5031638;28;19977;-77
2022/01/17 09:41:20;;;;;;;;;;;3.10;99.90;;;;;;5036314;28;20300;-77
2022/01/17 09:43:47;;;;;;;;;;;3.10;99.90;;;;;;5027137;28;20020;-77
2022/01/17 09:46:17;;;;;;;;;;;3.10;99.90;;;;;;5045090;28;19956;-77
2022/01/17 09:48:48;;;;;;;;;;;3.10;99.90;;;;;;5024360;28;19929;-76
2022/01/17 09:51:19;;;;;;;;;;;3.10;99.90;;;;;;5043034;28;19947;-77
2022/01/17 09:53:47;;;;;;;;;;;3.10;99.90;;;;;;5023224;28;19929;-77
2022/01/17 09:56:14;;;;;;;;;;;3.20;99.90;;;;;;5026977;28;19932;-77
2022/01/17 09:58:42;;;;;;;;;;;3.20;99.90;;;;;;5041497;28;19929;-77
2022/01/17 10:01:10;;;;;;;;;;;3.20;99.90;;;;;;5032387;28;19931;-77
2022/01/17 10:03:39;;;;;;;;;;;3.20;99.90;;;;;;5048933;28;19932;-78
2022/01/17 10:06:06;;;;;;;;;;;3.20;99.90;;;;;;5060439;28;21198;-78
2022/01/17 10:08:33;;;;;;;;;;;3.20;99.90;;;;;;5051719;28;19935;-77
2022/01/17 10:11:02;;;;;;;;;;;3.20;99.90;;;;;;5043954;28;19928;-77
2022/01/17 10:13:30;;;;;;;;;;;3.30;99.90;;;;;;5054028;28;20130;-78
2022/01/17 10:15:58;;;;;;;;;;;3.30;99.90;;;;;;5055649;28;19925;-78
2022/01/17 10:18:30;;;;;;;;;;;3.30;99.90;;;;;;5035159;28;20551;-78
2022/01/17 10:21:03;;;;;;;;;;;3.30;99.90;;;;;;5062406;28;19925;-78
2022/01/17 10:26:38;;;;;;;;;;;3.30;99.90;;;;;;5050434;28;20005;-77
2022/01/17 10:29:32;;;;;;;;;;;3.40;99.90;;;;;;5044482;28;20828;-77
2022/01/17 10:34:54;;;;;;;;;;;3.40;99.90;;;;;;5073936;28;19924;-77
2022/01/17 10:37:26;;;;;;;;;;;3.40;99.90;;;;;;5051182;28;19924;-78
2022/01/17 10:39:57;;;;;;;;;;;3.40;99.90;;;;;;5060862;28;19924;-78
2022/01/17 10:42:26;;;;;;;;;;;3.40;99.90;;;;;;5065540;28;19939;-78
2022/01/17 10:44:53;;;;;;;;;;;3.50;99.90;;;;;;5085471;28;19955;-78
2022/01/17 10:47:26;;;;;;;;;;;3.50;99.90;;;;;;5064747;28;19954;-78
2022/01/17 10:49:54;;;;;;;;;;;3.50;99.90;;;;;;5065480;28;19936;-78
2022/01/17 10:52:33;;;;;;;;;;;3.50;99.90;;;;;;5079258;28;20334;-79
2022/01/17 10:55:05;;;;;;;;;;;3.50;99.90;;;;;;5080424;28;20406;-78
2022/01/17 10:57:36;;;;;;;;;;;3.50;99.90;;;;;;5069382;28;19935;-78
2022/01/17 11:00:08;;;;;;;;;;;3.50;99.90;;;;;;5058303;28;19925;-78
2022/01/17 11:02:39;;;;;;;;;;;3.50;99.90;;;;;;5077953;28;20218;-78
2022/01/17 11:05:07;;;;;;;;;;;3.50;99.90;;;;;;5068508;28;19925;-78
2022/01/17 11:07:40;;;;;;;;;;;3.60;99.90;;;;;;5056101;28;20298;-78
2022/01/17 11:10:13;;;;;;;;;;;3.50;99.90;;;;;;5070701;28;19924;-78
2022/01/17 11:12:56;;;;;;;;;;;3.50;99.90;;;;;;5066263;28;19924;-78
2022/01/17 11:15:24;;;;;;;;;;;3.50;99.90;;;;;;5064123;28;19932;-78
2022/01/17 11:17:55;;;;;;;;;;;3.50;99.90;;;;;;5041694;28;20295;-78
2022/01/17 11:20:22;;;;;;;;;;;3.60;99.90;;;;;;5044620;28;19932;-78
2022/01/17 11:22:52;;;;;;;;;;;3.60;99.90;;;;;;5064079;28;20031;-78
2022/01/17 11:25:21;;;;;;;;;;;3.60;99.90;;;;;;5043336;28;19925;-78
2022/01/17 11:27:48;;;;;;;;;;;3.60;99.90;;;;;;5068199;28;19925;-78
2022/01/17 11:30:16;;;;;;;;;;;3.60;99.90;;;;;;5065267;28;19975;-77
2022/01/17 11:32:44;;;;;;;;;;;3.60;99.90;;;;;;5062125;28;19925;-77
2022/01/17 11:35:13;;;;;;;;;;;3.70;99.90;;;;;;5069954;28;20341;-78
2022/01/17 11:37:43;;;;;;;;;;;3.70;99.90;;;;;;5058880;28;21268;-78
2022/01/17 11:40:13;;;;;;;;;;;3.70;99.90;;;;;;5059916;28;20750;-77
2022/01/17 11:42:41;;;;;;;;;;;3.70;99.90;;;;;;5062046;28;20031;-78
2022/01/17 11:45:27;;;;;;;;;;;3.70;99.90;;;;;;5068507;28;19924;-78
2022/01/17 11:47:55;;;;;;;;;;;3.80;99.90;;;;;;5059705;28;20390;-77
2022/01/17 11:50:33;;;;;;;;;;;3.80;99.90;;;;;;5047100;28;19931;-78
2022/01/17 11:53:21;;;;;;;;;;;3.70;99.90;;;;;;5046413;28;20302;-77
2022/01/17 11:55:51;;;;;;;;;;;3.80;99.90;;;;;;5065859;28;19932;-77
2022/01/17 11:58:19;;;;;;;;;;;3.80;99.90;;;;;;5061959;28;19924;-78
2022/01/17 12:00:49;;;;;;;;;;;3.80;99.90;;;;;;5062674;28;20299;-78
2022/01/17 12:03:19;;;;;;;;;;;3.80;99.90;;;;;;5063513;28;19982;-77
2022/01/17 12:05:47;;;;;;;;;;;3.80;99.90;;;;;;5068223;28;19932;-78
2022/01/17 12:08:18;;;;;;;;;;;3.80;99.90;;;;;;5057305;28;19951;-78
2022/01/17 12:10:47;;;;;;;;;;;3.80;99.90;;;;;;5059740;28;19960;-77
2022/01/17 12:13:45;;;;;;;;;;;3.90;99.90;;;;;;5037189;28;19931;-77
2022/01/17 12:16:17;;;;;;;;;;;3.80;99.90;;;;;;5057204;28;19947;-78
2022/01/17 12:18:46;;;;;;;;;;;3.80;99.90;;;;;;5064304;28;20549;-77
2022/01/17 12:21:24;;;;;;;;;;;3.90;99.90;;;;;;5044212;28;19924;-77
2022/01/17 12:23:51;;;;;;;;;;;3.90;99.90;;;;;;5047733;28;19928;-77
2022/01/17 12:26:25;;;;;;;;;;;3.90;99.90;;;;;;5068714;28;19939;-77
2022/01/17 12:28:53;;;;;;;;;;;3.90;99.90;;;;;;5057809;28;19928;-78
2022/01/17 12:31:34;;;;;;;;;;;3.90;99.90;;;;;;5061576;28;19925;-77
2022/01/17 12:34:16;;;;;;;;;;;3.90;99.90;;;;;;5034874;28;19951;-77
2022/01/17 12:36:46;;;;;;;;;;;3.90;99.90;;;;;;5046259;28;19925;-77
2022/01/17 12:39:14;;;;;;;;;;;3.90;99.90;;;;;;5060488;28;19931;-77
2022/01/17 12:41:42;;;;;;;;;;;3.90;99.90;;;;;;5047564;28;19929;-77
2022/01/17 12:44:13;;;;;;;;;;;3.90;99.90;;;;;;5041212;28;19983;-77
2022/01/17 12:46:44;;;;;;;;;;;3.90;99.90;;;;;;5055899;28;20043;-77
2022/01/17 12:49:11;;;;;;;;;;;3.90;99.90;;;;;;5064245;28;19924;-77
2022/01/17 12:51:42;;;;;;;;;;;4.00;99.90;;;;;;5055853;28;20391;-77
2022/01/17 12:54:13;;;;;;;;;;;4.00;99.90;;;;;;5048078;28;19974;-77
2022/01/17 12:56:45;;;;;;;;;;;4.00;99.90;;;;;;5057459;28;20545;-77
2022/01/17 12:59:13;;;;;;;;;;;4.00;99.90;;;;;;5041656;28;20027;-77
2022/01/17 13:01:41;;;;;;;;;;;4.00;99.90;;;;;;5060610;28;20371;-77
2022/01/17 13:04:12;;;;;;;;;;;4.00;99.90;;;;;;5055347;28;20418;-77
2022/01/17 13:06:40;;;;;;;;;;;4.00;99.90;;;;;;5064716;28;19925;-77
2022/01/17 13:09:12;;;;;;;;;;;4.00;99.90;;;;;;5053909;28;19931;-77
2022/01/17 13:11:40;;;;;;;;;;;4.00;99.90;;;;;;5064065;28;19931;-77
2022/01/17 13:14:07;;;;;;;;;;;4.00;99.90;;;;;;5059850;28;19924;-77
2022/01/17 13:16:35;;;;;;;;;;;4.00;99.90;;;;;;5057431;28;20008;-77
2022/01/17 13:19:04;;;;;;;;;;;4.10;99.90;;;;;;5054239;28;19928;-77
2022/01/17 13:21:31;;;;;;;;;;;4.10;99.90;;;;;;5059487;28;20329;-77
2022/01/17 13:24:01;;;;;;;;;;;4.10;99.90;;;;;;5066172;28;19949;-77
2022/01/17 13:26:32;;;;;;;;;;;4.10;99.90;;;;;;5043308;28;19931;-77
2022/01/17 13:29:00;;;;;;;;;;;4.10;99.90;;;;;;5037361;28;20333;-77
2022/01/17 13:31:28;;;;;;;;;;;4.10;99.90;;;;;;5048246;28;19936;-77
2022/01/17 13:33:58;;;;;;;;;;;4.10;99.90;;;;;;5064075;28;20414;-77
2022/01/17 13:36:28;;;;;;;;;;;4.10;99.90;;;;;;5064140;28;19961;-77
2022/01/17 13:39:05;;;;;;;;;;;4.10;99.90;;;;;;5057221;28;20379;-77
2022/01/17 13:41:38;;;;;;;;;;;4.10;99.90;;;;;;5061688;28;20541;-77
2022/01/17 13:44:10;;;;;;;;;;;4.10;99.90;;;;;;5066455;28;19925;-77
2022/01/17 13:46:38;;;;;;;;;;;4.10;99.90;;;;;;5059144;28;19959;-77
2022/01/17 13:49:06;;;;;;;;;;;4.20;99.90;;;;;;5055904;28;19925;-77
2022/01/17 13:51:34;;;;;;;;;;;4.10;99.90;;;;;;5062464;28;20438;-78
2022/01/17 13:54:04;;;;;;;;;;;4.10;99.90;;;;;;5041656;28;19987;-78
2022/01/17 13:56:45;;;;;;;;;;;4.10;99.90;;;;;;5045133;28;19932;-77
2022/01/17 13:59:23;;;;;;;;;;;4.10;99.90;;;;;;5061058;28;20437;-79
2022/01/17 14:01:50;;;;;;;;;;;4.10;99.90;;;;;;5063753;28;19924;-78
2022/01/17 14:04:28;;;;;;;;;;;4.10;99.90;;;;;;5064469;28;19947;-77
2022/01/17 14:06:56;;;;;;;;;;;4.10;99.90;;;;;;5036861;28;19928;-78
2022/01/17 14:09:31;;;;;;;;;;;4.10;99.90;;;;;;5042105;28;20391;-77
2022/01/17 14:11:59;;;;;;;;;;;4.10;99.90;;;;;;5051357;28;19931;-78
2022/01/17 14:14:27;;;;;;;;;;;4.10;99.90;;;;;;5062266;28;20081;-78
2022/01/17 14:16:55;;;;;;;;;;;4.10;99.90;;;;;;5065309;28;20033;-78
2022/01/17 14:19:22;;;;;;;;;;;4.10;99.90;;;;;;5070036;28;20365;-78
2022/01/17 14:21:51;;;;;;;;;;;4.10;99.90;;;;;;5063225;28;19924;-78
2022/01/17 14:24:20;;;;;;;;;;;4.10;99.90;;;;;;5062457;28;19975;-78
2022/01/17 14:26:51;;;;;;;;;;;4.10;99.90;;;;;;5063554;28;20394;-78
2022/01/17 14:29:21;;;;;;;;;;;4.10;99.90;;;;;;5046686;28;20593;-78
2022/01/17 14:31:48;;;;;;;;;;;4.10;99.90;;;;;;5042896;28;21328;-78
2022/01/17 14:34:17;;;;;;;;;;;4.10;99.90;;;;;;5065213;28;20299;-78
2022/01/17 14:36:45;;;;;;;;;;;4.10;99.90;;;;;;5064273;28;19931;-78
2022/01/17 14:39:12;;;;;;;;;;;4.10;99.90;;;;;;5055128;28;19970;-77
2022/01/17 14:41:47;;;;;;;;;;;4.10;99.90;;;;;;5063539;28;19932;-78
2022/01/17 14:44:16;;;;;;;;;;;4.10;99.90;;;;;;5057740;28;19979;-77
2022/01/17 14:46:45;;;;;;;;;;;4.10;99.90;;;;;;5034322;28;19936;-78
2022/01/17 14:49:18;;;;;;;;;;;4.00;99.90;;;;;;5070420;28;19998;-77
2022/01/17 14:51:45;;;;;;;;;;;4.10;99.90;;;;;;5057291;28;19924;-77
2022/01/17 14:54:16;;;;;;;;;;;4.00;99.90;;;;;;5063001;28;19951;-78
2022/01/17 14:59:45;;;;;;;;;;;4.00;99.90;;;;;;5048703;28;19933;-78
2022/01/17 15:02:24;;;;;;;;;;;4.00;99.90;;;;;;5064036;28;19925;-77
2022/01/17 15:04:51;;;;;;;;;;;4.00;99.90;;;;;;5052054;28;19924;-78